sensor_id;sensor_type;location;lat;lon;timestamp;pressure;altitude;pressure_sealevel;temperature;humidity
17209;BME280;8720;48.488;9.202;2022-07-06T00:00:21;97593.69;;;21.68;40.37
17209;BME280;8720;48.488;9.202;2022-07-06T00:02:48;97590.06;;;21.69;40.41
17209;BME280;8720;48.488;9.202;2022-07-06T00:05:15;97589.31;;;21.67;40.23
17209;BME280;8720;48.488;9.202;2022-07-06T00:07:42;97587.59;;;21.66;40.40
17209;BME280;8720;48.488;9.202;2022-07-06T00:10:10;97600.16;;;21.64;40.13
17209;BME280;8720;48.488;9.202;2022-07-06T00:12:38;97601.19;;;21.62;40.36
17209;BME280;8720;48.488;9.202;2022-07-06T00:15:06;97600.50;;;21.58;40.41
17209;BME280;8720;48.488;9.202;2022-07-06T00:17:33;97596.22;;;21.56;40.34
17209;BME280;8720;48.488;9.202;2022-07-06T00:20:01;97601.63;;;21.54;40.73
17209;BME280;8720;48.488;9.202;2022-07-06T00:22:28;97594.69;;;21.52;40.53
17209;BME280;8720;48.488;9.202;2022-07-06T00:24:55;97585.09;;;21.49;40.53
17209;BME280;8720;48.488;9.202;2022-07-06T00:27:23;97588.78;;;21.47;40.40
17209;BME280;8720;48.488;9.202;2022-07-06T00:29:51;97586.19;;;21.45;40.28
17209;BME280;8720;48.488;9.202;2022-07-06T00:32:19;97588.19;;;21.42;40.69
17209;BME280;8720;48.488;9.202;2022-07-06T00:34:46;97582.97;;;21.40;40.67
17209;BME280;8720;48.488;9.202;2022-07-06T00:37:13;97589.31;;;21.38;40.74
17209;BME280;8720;48.488;9.202;2022-07-06T00:39:41;97587.69;;;21.35;40.97
17209;BME280;8720;48.488;9.202;2022-07-06T00:42:08;97595.06;;;21.30;40.85
17209;BME280;8720;48.488;9.202;2022-07-06T00:44:35;97589.06;;;21.27;41.24
17209;BME280;8720;48.488;9.202;2022-07-06T00:47:04;97594.47;;;21.25;41.11
17209;BME280;8720;48.488;9.202;2022-07-06T00:49:33;97596.34;;;21.23;41.08
17209;BME280;8720;48.488;9.202;2022-07-06T00:52:18;97581.09;;;21.11;41.16
17209;BME280;8720;48.488;9.202;2022-07-06T00:54:46;97587.53;;;21.07;41.45
17209;BME280;8720;48.488;9.202;2022-07-06T00:57:14;97594.31;;;21.13;41.48
17209;BME280;8720;48.488;9.202;2022-07-06T00:59:43;97594.47;;;21.10;41.71
17209;BME280;8720;48.488;9.202;2022-07-06T01:02:11;97583.47;;;21.00;41.69
17209;BME280;8720;48.488;9.202;2022-07-06T01:04:39;97592.09;;;21.05;41.79
17209;BME280;8720;48.488;9.202;2022-07-06T01:07:06;97584.28;;;21.02;41.81
17209;BME280;8720;48.488;9.202;2022-07-06T01:09:33;97597.56;;;21.02;41.93
17209;BME280;8720;48.488;9.202;2022-07-06T01:12:01;97592.41;;;20.99;41.96
17209;BME280;8720;48.488;9.202;2022-07-06T01:14:29;97595.22;;;20.96;42.18
17209;BME280;8720;48.488;9.202;2022-07-06T01:16:56;97601.59;;;20.94;42.37
17209;BME280;8720;48.488;9.202;2022-07-06T01:19:25;97599.94;;;20.91;42.41
17209;BME280;8720;48.488;9.202;2022-07-06T01:21:54;97585.88;;;20.89;42.29
17209;BME280;8720;48.488;9.202;2022-07-06T01:24:22;97587.75;;;20.87;42.26
17209;BME280;8720;48.488;9.202;2022-07-06T01:26:49;97594.97;;;20.85;42.64
17209;BME280;8720;48.488;9.202;2022-07-06T01:29:17;97586.22;;;20.83;42.60
17209;BME280;8720;48.488;9.202;2022-07-06T01:31:47;97588.09;;;20.81;42.42
17209;BME280;8720;48.488;9.202;2022-07-06T01:34:16;97572.47;;;20.75;42.73
17209;BME280;8720;48.488;9.202;2022-07-06T01:36:45;97581.22;;;20.77;42.61
17209;BME280;8720;48.488;9.202;2022-07-06T01:39:14;97575.22;;;20.73;42.60
17209;BME280;8720;48.488;9.202;2022-07-06T01:41:42;97577.97;;;20.72;42.51
17209;BME280;8720;48.488;9.202;2022-07-06T01:44:09;97580.72;;;20.70;42.77
17209;BME280;8720;48.488;9.202;2022-07-06T01:46:38;97585.38;;;20.67;42.60
17209;BME280;8720;48.488;9.202;2022-07-06T01:49:08;97580.19;;;20.64;42.76
17209;BME280;8720;48.488;9.202;2022-07-06T01:51:35;97575.91;;;20.61;43.10
17209;BME280;8720;48.488;9.202;2022-07-06T01:54:02;97580.47;;;20.59;43.10
17209;BME280;8720;48.488;9.202;2022-07-06T01:56:31;97589.47;;;20.57;43.13
17209;BME280;8720;48.488;9.202;2022-07-06T01:59:02;97583.50;;;20.52;43.21
17209;BME280;8720;48.488;9.202;2022-07-06T02:04:10;97590.81;;;20.48;43.29
17209;BME280;8720;48.488;9.202;2022-07-06T02:06:39;97591.00;;;20.45;43.68
17209;BME280;8720;48.488;9.202;2022-07-06T02:09:07;97588.41;;;20.44;43.71
17209;BME280;8720;48.488;9.202;2022-07-06T02:11:36;97584.03;;;20.43;43.48
17209;BME280;8720;48.488;9.202;2022-07-06T02:14:03;97588.56;;;20.41;43.60
17209;BME280;8720;48.488;9.202;2022-07-06T02:16:30;97586.91;;;20.38;43.71
17209;BME280;8720;48.488;9.202;2022-07-06T02:18:58;97585.31;;;20.36;43.71
17209;BME280;8720;48.488;9.202;2022-07-06T02:21:27;97584.53;;;20.34;43.85
17209;BME280;8720;48.488;9.202;2022-07-06T02:23:55;97577.75;;;20.28;44.00
17209;BME280;8720;48.488;9.202;2022-07-06T02:26:23;97582.09;;;20.29;44.01
17209;BME280;8720;48.488;9.202;2022-07-06T02:28:52;97590.25;;;20.26;44.05
17209;BME280;8720;48.488;9.202;2022-07-06T02:31:20;97592.13;;;20.24;43.82
17209;BME280;8720;48.488;9.202;2022-07-06T02:33:49;97598.47;;;20.22;43.82
17209;BME280;8720;48.488;9.202;2022-07-06T02:36:16;97601.28;;;20.19;44.06
17209;BME280;8720;48.488;9.202;2022-07-06T02:38:43;97597.19;;;20.12;43.88
17209;BME280;8720;48.488;9.202;2022-07-06T02:41:11;97605.94;;;20.14;44.13
17209;BME280;8720;48.488;9.202;2022-07-06T02:43:39;97604.38;;;20.10;44.21
17209;BME280;8720;48.488;9.202;2022-07-06T02:46:08;97597.69;;;20.03;44.39
17209;BME280;8720;48.488;9.202;2022-07-06T02:48:35;97583.56;;;19.85;44.60
17209;BME280;8720;48.488;9.202;2022-07-06T02:51:04;97605.75;;;20.01;44.66
17209;BME280;8720;48.488;9.202;2022-07-06T02:53:31;97607.69;;;19.98;44.56
17209;BME280;8720;48.488;9.202;2022-07-06T02:56:00;97602.44;;;19.96;44.53
17209;BME280;8720;48.488;9.202;2022-07-06T02:58:28;97607.06;;;19.92;44.54
17209;BME280;8720;48.488;9.202;2022-07-06T03:00:55;97605.50;;;19.88;44.74
17209;BME280;8720;48.488;9.202;2022-07-06T03:03:24;97614.63;;;19.83;44.99
17209;BME280;8720;48.488;9.202;2022-07-06T03:05:51;97618.16;;;19.83;44.83
17209;BME280;8720;48.488;9.202;2022-07-06T03:08:20;97628.00;;;19.81;44.90
17209;BME280;8720;48.488;9.202;2022-07-06T03:10:48;97632.53;;;19.79;45.10
17209;BME280;8720;48.488;9.202;2022-07-06T03:13:16;97625.56;;;19.77;45.42
17209;BME280;8720;48.488;9.202;2022-07-06T03:15:44;97627.44;;;19.75;45.30
17209;BME280;8720;48.488;9.202;2022-07-06T03:18:11;97628.41;;;19.74;45.13
17209;BME280;8720;48.488;9.202;2022-07-06T03:20:41;97632.06;;;19.71;45.28
17209;BME280;8720;48.488;9.202;2022-07-06T03:23:10;97628.63;;;19.69;45.57
17209;BME280;8720;48.488;9.202;2022-07-06T03:25:39;97625.09;;;19.69;45.30
17209;BME280;8720;48.488;9.202;2022-07-06T03:28:07;97634.09;;;19.66;45.58
17209;BME280;8720;48.488;9.202;2022-07-06T03:30:34;97627.13;;;19.64;45.50
17209;BME280;8720;48.488;9.202;2022-07-06T03:33:01;97631.75;;;19.60;45.46
17209;BME280;8720;48.488;9.202;2022-07-06T03:35:29;97634.47;;;19.59;45.50
17209;BME280;8720;48.488;9.202;2022-07-06T03:37:58;97635.41;;;19.58;45.29
17209;BME280;8720;48.488;9.202;2022-07-06T03:40:29;97639.00;;;19.57;45.68
17209;BME280;8720;48.488;9.202;2022-07-06T03:42:56;97631.09;;;19.55;45.69
17209;BME280;8720;48.488;9.202;2022-07-06T03:45:25;97631.97;;;19.56;45.88
17209;BME280;8720;48.488;9.202;2022-07-06T03:47:53;97642.56;;;19.56;45.68
17209;BME280;8720;48.488;9.202;2022-07-06T03:50:20;97640.78;;;19.56;46.13
17209;BME280;8720;48.488;9.202;2022-07-06T03:52:48;97637.28;;;19.56;45.93
17209;BME280;8720;48.488;9.202;2022-07-06T03:55:17;97637.19;;;19.57;45.96
17209;BME280;8720;48.488;9.202;2022-07-06T03:57:50;97642.44;;;19.59;45.96
17209;BME280;8720;48.488;9.202;2022-07-06T04:00:21;97639.69;;;19.60;45.99
17209;BME280;8720;48.488;9.202;2022-07-06T04:02:56;97637.84;;;19.62;45.69
17209;BME280;8720;48.488;9.202;2022-07-06T04:05:28;97643.84;;;19.66;45.74
17209;BME280;8720;48.488;9.202;2022-07-06T04:07:55;97643.69;;;19.69;46.03
17209;BME280;8720;48.488;9.202;2022-07-06T04:10:30;97641.81;;;19.71;46.15
17209;BME280;8720;48.488;9.202;2022-07-06T04:12:58;97639.00;;;19.74;45.98
17209;BME280;8720;48.488;9.202;2022-07-06T04:15:25;97644.94;;;19.79;45.93
17209;BME280;8720;48.488;9.202;2022-07-06T04:17:53;97649.06;;;19.84;45.97
17209;BME280;8720;48.488;9.202;2022-07-06T04:20:27;97640.03;;;19.88;45.84
17209;BME280;8720;48.488;9.202;2022-07-06T04:22:56;97641.44;;;19.96;46.00
17209;BME280;8720;48.488;9.202;2022-07-06T04:25:25;97628.22;;;19.94;46.20
17209;BME280;8720;48.488;9.202;2022-07-06T04:27:58;97634.56;;;20.09;45.90
17209;BME280;8720;48.488;9.202;2022-07-06T04:30:27;97635.94;;;20.16;45.90
17209;BME280;8720;48.488;9.202;2022-07-06T04:32:55;97638.22;;;20.23;46.06
17209;BME280;8720;48.488;9.202;2022-07-06T04:35:25;97637.91;;;20.29;45.86
17209;BME280;8720;48.488;9.202;2022-07-06T04:37:54;97653.31;;;20.40;45.54
17209;BME280;8720;48.488;9.202;2022-07-06T04:40:22;97652.50;;;20.55;45.53
17209;BME280;8720;48.488;9.202;2022-07-06T04:42:53;97648.59;;;20.93;45.66
17209;BME280;8720;48.488;9.202;2022-07-06T04:45:23;97656.63;;;21.55;45.08
17209;BME280;8720;48.488;9.202;2022-07-06T04:47:50;97652.88;;;22.19;44.82
17209;BME280;8720;48.488;9.202;2022-07-06T04:50:18;97662.84;;;22.87;44.28
17209;BME280;8720;48.488;9.202;2022-07-06T04:52:46;97661.50;;;23.63;43.64
17209;BME280;8720;48.488;9.202;2022-07-06T04:55:14;97661.41;;;24.43;42.57
17209;BME280;8720;48.488;9.202;2022-07-06T05:06:28;97647.47;;;27.66;39.73
17209;BME280;8720;48.488;9.202;2022-07-06T05:08:56;97654.59;;;28.30;38.16
17209;BME280;8720;48.488;9.202;2022-07-06T05:11:26;97656.22;;;28.84;37.02
17209;BME280;8720;48.488;9.202;2022-07-06T05:13:55;97661.16;;;29.39;35.95
17209;BME280;8720;48.488;9.202;2022-07-06T05:16:22;97659.19;;;29.81;34.89
17209;BME280;8720;48.488;9.202;2022-07-06T05:18:50;97668.44;;;30.16;34.58
17209;BME280;8720;48.488;9.202;2022-07-06T05:21:17;97673.28;;;30.51;33.54
17209;BME280;8720;48.488;9.202;2022-07-06T05:23:46;97656.47;;;30.76;33.32
17209;BME280;8720;48.488;9.202;2022-07-06T05:26:13;97666.41;;;31.04;32.50
17209;BME280;8720;48.488;9.202;2022-07-06T05:28:41;97641.56;;;31.18;31.85
17209;BME280;8720;48.488;9.202;2022-07-06T05:31:13;97671.03;;;31.58;31.59
17209;BME280;8720;48.488;9.202;2022-07-06T05:33:40;97671.53;;;31.89;30.93
17209;BME280;8720;48.488;9.202;2022-07-06T05:36:09;97672.66;;;32.13;30.15
17209;BME280;8720;48.488;9.202;2022-07-06T05:38:36;97656.25;;;32.33;29.87
17209;BME280;8720;48.488;9.202;2022-07-06T05:41:06;97660.22;;;32.56;29.60
17209;BME280;8720;48.488;9.202;2022-07-06T05:43:35;97669.09;;;32.66;29.14
17209;BME280;8720;48.488;9.202;2022-07-06T05:46:03;97670.63;;;32.86;29.08
17209;BME280;8720;48.488;9.202;2022-07-06T05:48:32;97669.47;;;33.14;28.85
17209;BME280;8720;48.488;9.202;2022-07-06T05:51:18;97667.69;;;33.31;28.09
17209;BME280;8720;48.488;9.202;2022-07-06T05:53:46;97671.66;;;33.44;28.01
17209;BME280;8720;48.488;9.202;2022-07-06T05:56:15;97674.50;;;33.68;27.93
17209;BME280;8720;48.488;9.202;2022-07-06T05:58:43;97671.53;;;33.87;27.39
17209;BME280;8720;48.488;9.202;2022-07-06T06:01:10;97673.63;;;34.02;26.93
17209;BME280;8720;48.488;9.202;2022-07-06T06:03:40;97671.44;;;34.13;26.92
17209;BME280;8720;48.488;9.202;2022-07-06T06:06:08;97674.84;;;34.31;26.64
17209;BME280;8720;48.488;9.202;2022-07-06T06:08:35;97663.53;;;34.52;26.51
17209;BME280;8720;48.488;9.202;2022-07-06T06:11:03;97672.00;;;34.81;26.54
17209;BME280;8720;48.488;9.202;2022-07-06T06:13:32;97666.88;;;35.10;25.90
17209;BME280;8720;48.488;9.202;2022-07-06T06:15:59;97674.44;;;35.39;25.79
17209;BME280;8720;48.488;9.202;2022-07-06T06:18:27;97679.84;;;35.63;25.23
17209;BME280;8720;48.488;9.202;2022-07-06T06:20:54;97676.91;;;35.73;24.79
17209;BME280;8720;48.488;9.202;2022-07-06T06:23:21;97680.13;;;35.76;24.55
17209;BME280;8720;48.488;9.202;2022-07-06T06:25:49;97684.03;;;35.74;24.40
17209;BME280;8720;48.488;9.202;2022-07-06T06:28:16;97682.41;;;35.64;24.35
17209;BME280;8720;48.488;9.202;2022-07-06T06:30:45;97678.81;;;35.64;24.62
17209;BME280;8720;48.488;9.202;2022-07-06T06:33:14;97681.88;;;35.69;23.93
17209;BME280;8720;48.488;9.202;2022-07-06T06:35:43;97691.19;;;35.83;23.75
17209;BME280;8720;48.488;9.202;2022-07-06T06:38:11;97677.53;;;35.91;23.86
17209;BME280;8720;48.488;9.202;2022-07-06T06:40:39;97693.19;;;35.89;24.22
17209;BME280;8720;48.488;9.202;2022-07-06T06:43:06;97680.09;;;35.92;23.72
17209;BME280;8720;48.488;9.202;2022-07-06T06:45:44;97681.44;;;35.88;23.66
17209;BME280;8720;48.488;9.202;2022-07-06T06:48:12;97683.72;;;35.77;24.03
17209;BME280;8720;48.488;9.202;2022-07-06T06:50:39;97678.59;;;35.74;23.85
17209;BME280;8720;48.488;9.202;2022-07-06T06:53:07;97675.56;;;35.69;23.88
17209;BME280;8720;48.488;9.202;2022-07-06T06:55:34;97656.91;;;35.57;23.69
17209;BME280;8720;48.488;9.202;2022-07-06T06:58:01;97684.19;;;35.80;23.76
17209;BME280;8720;48.488;9.202;2022-07-06T07:00:29;97677.69;;;35.89;23.63
17209;BME280;8720;48.488;9.202;2022-07-06T07:02:58;97675.28;;;36.02;23.67
17209;BME280;8720;48.488;9.202;2022-07-06T07:05:25;97672.81;;;36.15;23.66
17209;BME280;8720;48.488;9.202;2022-07-06T07:07:53;97679.84;;;36.32;23.52
17209;BME280;8720;48.488;9.202;2022-07-06T07:10:25;97675.84;;;36.43;23.30
17209;BME280;8720;48.488;9.202;2022-07-06T07:12:52;97668.59;;;36.58;23.11
17209;BME280;8720;48.488;9.202;2022-07-06T07:15:23;97668.16;;;36.69;22.77
17209;BME280;8720;48.488;9.202;2022-07-06T07:17:50;97666.56;;;36.75;22.67
17209;BME280;8720;48.488;9.202;2022-07-06T07:20:19;97666.63;;;36.67;22.41
17209;BME280;8720;48.488;9.202;2022-07-06T07:22:46;97667.75;;;36.58;22.46
17209;BME280;8720;48.488;9.202;2022-07-06T07:25:13;97669.19;;;36.45;22.53
17209;BME280;8720;48.488;9.202;2022-07-06T07:27:40;97672.13;;;36.44;22.62
17209;BME280;8720;48.488;9.202;2022-07-06T07:30:09;97669.41;;;36.13;22.66
17209;BME280;8720;48.488;9.202;2022-07-06T07:32:37;97665.94;;;35.89;22.79
17209;BME280;8720;48.488;9.202;2022-07-06T07:35:06;97677.69;;;35.89;22.81
17209;BME280;8720;48.488;9.202;2022-07-06T07:37:35;97674.66;;;35.84;22.70
17209;BME280;8720;48.488;9.202;2022-07-06T07:40:04;97669.25;;;35.76;23.11
17209;BME280;8720;48.488;9.202;2022-07-06T07:42:32;97664.59;;;35.85;23.17
17209;BME280;8720;48.488;9.202;2022-07-06T07:44:59;97667.28;;;35.93;23.27
17209;BME280;8720;48.488;9.202;2022-07-06T07:47:26;97658.25;;;36.00;22.96
17209;BME280;8720;48.488;9.202;2022-07-06T07:49:54;97666.44;;;36.00;22.76
17209;BME280;8720;48.488;9.202;2022-07-06T07:52:21;97654.34;;;35.95;22.79
17209;BME280;8720;48.488;9.202;2022-07-06T07:54:50;97651.28;;;35.90;22.81
17209;BME280;8720;48.488;9.202;2022-07-06T07:57:17;97661.31;;;35.89;22.61
17209;BME280;8720;48.488;9.202;2022-07-06T07:59:44;97659.78;;;35.95;23.00
17209;BME280;8720;48.488;9.202;2022-07-06T08:02:11;97651.56;;;36.03;23.01
17209;BME280;8720;48.488;9.202;2022-07-06T08:04:39;97653.78;;;36.07;22.28
17209;BME280;8720;48.488;9.202;2022-07-06T08:07:06;97656.88;;;36.04;22.52
17209;BME280;8720;48.488;9.202;2022-07-06T08:09:34;97649.53;;;36.05;22.68
17209;BME280;8720;48.488;9.202;2022-07-06T08:12:03;97655.31;;;36.10;22.75
17209;BME280;8720;48.488;9.202;2022-07-06T08:14:30;97653.06;;;36.13;22.95
17209;BME280;8720;48.488;9.202;2022-07-06T08:16:58;97655.22;;;36.18;22.65
17209;BME280;8720;48.488;9.202;2022-07-06T08:19:25;97649.28;;;36.14;22.14
17209;BME280;8720;48.488;9.202;2022-07-06T08:21:53;97652.00;;;35.92;22.64
17209;BME280;8720;48.488;9.202;2022-07-06T08:24:20;97654.69;;;36.00;23.03
17209;BME280;8720;48.488;9.202;2022-07-06T08:26:47;97652.13;;;35.98;22.77
17209;BME280;8720;48.488;9.202;2022-07-06T08:29:16;97654.69;;;36.00;22.98
17209;BME280;8720;48.488;9.202;2022-07-06T08:31:43;97655.19;;;35.95;22.46
17209;BME280;8720;48.488;9.202;2022-07-06T08:34:10;97656.44;;;35.85;23.04
17209;BME280;8720;48.488;9.202;2022-07-06T08:36:38;97658.63;;;35.81;23.29
17209;BME280;8720;48.488;9.202;2022-07-06T08:39:05;97653.56;;;35.78;22.63
17209;BME280;8720;48.488;9.202;2022-07-06T08:41:36;97657.69;;;35.66;22.76
17209;BME280;8720;48.488;9.202;2022-07-06T08:44:06;97660.81;;;35.55;22.92
17209;BME280;8720;48.488;9.202;2022-07-06T08:46:37;97653.19;;;35.42;23.25
17209;BME280;8720;48.488;9.202;2022-07-06T08:49:06;97665.13;;;35.33;23.55
17209;BME280;8720;48.488;9.202;2022-07-06T08:51:35;97660.06;;;35.22;23.56
17209;BME280;8720;48.488;9.202;2022-07-06T08:54:03;97665.22;;;35.01;23.49
17209;BME280;8720;48.488;9.202;2022-07-06T08:56:31;97661.66;;;34.85;23.77
17209;BME280;8720;48.488;9.202;2022-07-06T08:58:59;97658.56;;;34.71;23.50
17209;BME280;8720;48.488;9.202;2022-07-06T09:01:27;97663.69;;;34.58;23.96
17209;BME280;8720;48.488;9.202;2022-07-06T09:03:56;97653.63;;;34.43;23.56
17209;BME280;8720;48.488;9.202;2022-07-06T09:06:27;97650.53;;;34.06;23.90
17209;BME280;8720;48.488;9.202;2022-07-06T09:08:56;97654.69;;;33.76;24.24
17209;BME280;8720;48.488;9.202;2022-07-06T09:11:25;97656.97;;;33.55;24.84
17209;BME280;8720;48.488;9.202;2022-07-06T09:13:52;97664.16;;;33.38;24.54
17209;BME280;8720;48.488;9.202;2022-07-06T09:16:26;97661.28;;;33.06;24.90
17209;BME280;8720;48.488;9.202;2022-07-06T09:18:56;97651.69;;;32.68;25.47
17209;BME280;8720;48.488;9.202;2022-07-06T09:21:25;97646.06;;;32.44;25.42
17209;BME280;8720;48.488;9.202;2022-07-06T09:23:57;97647.94;;;32.26;26.04
17209;BME280;8720;48.488;9.202;2022-07-06T09:26:25;97657.53;;;32.03;25.84
17209;BME280;8720;48.488;9.202;2022-07-06T09:28:56;97660.00;;;31.87;26.08
17209;BME280;8720;48.488;9.202;2022-07-06T09:31:23;97654.94;;;31.74;26.50
17209;BME280;8720;48.488;9.202;2022-07-06T09:33:56;97666.75;;;31.56;26.39
17209;BME280;8720;48.488;9.202;2022-07-06T09:36:40;97660.31;;;31.39;26.57
17209;BME280;8720;48.488;9.202;2022-07-06T09:39:23;97665.47;;;31.23;26.43
17209;BME280;8720;48.488;9.202;2022-07-06T09:41:53;97664.81;;;31.02;26.95
17209;BME280;8720;48.488;9.202;2022-07-06T09:44:22;97660.19;;;30.85;27.48
17209;BME280;8720;48.488;9.202;2022-07-06T09:46:50;97667.81;;;30.80;27.51
17209;BME280;8720;48.488;9.202;2022-07-06T09:49:20;97661.03;;;30.76;27.49
17209;BME280;8720;48.488;9.202;2022-07-06T09:51:50;97673.13;;;30.81;27.85
17209;BME280;8720;48.488;9.202;2022-07-06T09:54:18;97664.41;;;30.78;27.96
17209;BME280;8720;48.488;9.202;2022-07-06T09:56:47;97668.53;;;30.82;28.07
17209;BME280;8720;48.488;9.202;2022-07-06T09:59:19;97672.41;;;30.89;27.94
17209;BME280;8720;48.488;9.202;2022-07-06T10:01:52;97667.25;;;30.95;27.41
17209;BME280;8720;48.488;9.202;2022-07-06T10:04:23;97666.97;;;30.98;27.49
17209;BME280;8720;48.488;9.202;2022-07-06T10:06:51;97665.53;;;31.04;27.17
17209;BME280;8720;48.488;9.202;2022-07-06T10:09:22;97674.75;;;31.11;27.12
17209;BME280;8720;48.488;9.202;2022-07-06T10:11:53;97668.31;;;31.21;27.47
17209;BME280;8720;48.488;9.202;2022-07-06T10:14:22;97669.25;;;31.30;27.06
17209;BME280;8720;48.488;9.202;2022-07-06T10:16:50;97670.25;;;31.39;27.15
17209;BME280;8720;48.488;9.202;2022-07-06T10:19:21;97666.66;;;31.48;27.06
17209;BME280;8720;48.488;9.202;2022-07-06T10:21:49;97674.31;;;31.52;27.53
17209;BME280;8720;48.488;9.202;2022-07-06T10:24:20;97672.59;;;31.51;27.33
17209;BME280;8720;48.488;9.202;2022-07-06T10:26:48;97672.22;;;31.46;27.52
17209;BME280;8720;48.488;9.202;2022-07-06T10:29:16;97668.81;;;31.44;26.89
17209;BME280;8720;48.488;9.202;2022-07-06T10:31:46;97658.69;;;31.46;27.05
17209;BME280;8720;48.488;9.202;2022-07-06T10:34:17;97661.72;;;31.43;26.64
17209;BME280;8720;48.488;9.202;2022-07-06T10:36:50;97664.44;;;31.33;26.92
17209;BME280;8720;48.488;9.202;2022-07-06T10:39:33;97674.72;;;31.20;27.27
17209;BME280;8720;48.488;9.202;2022-07-06T10:42:45;97663.56;;;30.96;26.62
17209;BME280;8720;48.488;9.202;2022-07-06T10:45:22;97663.03;;;30.74;27.13
17209;BME280;8720;48.488;9.202;2022-07-06T10:48:17;97658.81;;;30.52;27.13
17209;BME280;8720;48.488;9.202;2022-07-06T10:50:51;97658.25;;;30.49;27.59
17209;BME280;8720;48.488;9.202;2022-07-06T10:53:24;97667.63;;;30.44;28.07
17209;BME280;8720;48.488;9.202;2022-07-06T10:55:53;97663.78;;;30.37;27.86
17209;BME280;8720;48.488;9.202;2022-07-06T10:58:45;97659.38;;;30.36;28.04
17209;BME280;8720;48.488;9.202;2022-07-06T11:01:14;97651.56;;;30.33;27.76
17209;BME280;8720;48.488;9.202;2022-07-06T11:03:43;97659.66;;;30.33;27.52
17209;BME280;8720;48.488;9.202;2022-07-06T11:06:15;97648.97;;;30.22;27.71
17209;BME280;8720;48.488;9.202;2022-07-06T11:08:54;97657.78;;;30.15;27.38
17209;BME280;8720;48.488;9.202;2022-07-06T11:11:25;97649.84;;;30.04;27.79
17209;BME280;8720;48.488;9.202;2022-07-06T11:13:59;97645.28;;;29.95;28.09
17209;BME280;8720;48.488;9.202;2022-07-06T11:16:30;97642.72;;;29.93;27.75
17209;BME280;8720;48.488;9.202;2022-07-06T11:19:06;97641.03;;;29.83;28.22
17209;BME280;8720;48.488;9.202;2022-07-06T11:21:38;97643.16;;;29.89;28.11
17209;BME280;8720;48.488;9.202;2022-07-06T11:24:10;97641.28;;;29.89;28.48
17209;BME280;8720;48.488;9.202;2022-07-06T11:26:43;97627.22;;;29.86;28.55
17209;BME280;8720;48.488;9.202;2022-07-06T11:29:12;97636.03;;;30.07;28.33
17209;BME280;8720;48.488;9.202;2022-07-06T11:31:43;97637.47;;;30.20;28.21
17209;BME280;8720;48.488;9.202;2022-07-06T11:34:13;97634.78;;;30.30;28.30
17209;BME280;8720;48.488;9.202;2022-07-06T11:36:41;97641.03;;;30.50;27.67
17209;BME280;8720;48.488;9.202;2022-07-06T11:39:09;97637.44;;;30.59;27.68
17209;BME280;8720;48.488;9.202;2022-07-06T11:41:37;97637.44;;;30.59;27.96
17209;BME280;8720;48.488;9.202;2022-07-06T11:44:05;97627.66;;;30.48;28.12
17209;BME280;8720;48.488;9.202;2022-07-06T11:46:34;97618.56;;;30.39;27.70
17209;BME280;8720;48.488;9.202;2022-07-06T11:49:05;97621.84;;;30.33;27.80
17209;BME280;8720;48.488;9.202;2022-07-06T11:51:35;97632.78;;;30.41;28.28
17209;BME280;8720;48.488;9.202;2022-07-06T11:54:10;97628.25;;;30.32;28.31
17209;BME280;8720;48.488;9.202;2022-07-06T11:56:45;97630.78;;;30.24;28.33
17209;BME280;8720;48.488;9.202;2022-07-06T11:59:14;97624.97;;;30.10;28.39
17209;BME280;8720;48.488;9.202;2022-07-06T12:01:42;97607.78;;;29.92;28.50
17209;BME280;8720;48.488;9.202;2022-07-06T12:04:10;97606.66;;;29.85;28.75
17209;BME280;8720;48.488;9.202;2022-07-06T12:06:38;97606.91;;;29.82;29.08
17209;BME280;8720;48.488;9.202;2022-07-06T12:09:05;97606.50;;;29.77;28.81
17209;BME280;8720;48.488;9.202;2022-07-06T12:11:36;97603.47;;;29.70;28.82
17209;BME280;8720;48.488;9.202;2022-07-06T12:14:15;97593.69;;;29.59;29.36
17209;BME280;8720;48.488;9.202;2022-07-06T12:16:45;97596.94;;;29.63;29.28
17209;BME280;8720;48.488;9.202;2022-07-06T12:19:13;97592.09;;;29.57;29.06
17209;BME280;8720;48.488;9.202;2022-07-06T12:21:47;97599.31;;;29.56;29.42
17209;BME280;8720;48.488;9.202;2022-07-06T12:24:20;97591.78;;;29.50;29.64
17209;BME280;8720;48.488;9.202;2022-07-06T12:26:49;97602.72;;;29.49;29.46
17209;BME280;8720;48.488;9.202;2022-07-06T12:29:18;97595.78;;;29.46;29.56
17209;BME280;8720;48.488;9.202;2022-07-06T12:31:51;97573.47;;;29.35;29.26
17209;BME280;8720;48.488;9.202;2022-07-06T12:34:20;97595.19;;;29.43;29.58
17209;BME280;8720;48.488;9.202;2022-07-06T12:36:49;97601.16;;;29.37;29.34
17209;BME280;8720;48.488;9.202;2022-07-06T12:39:19;97594.19;;;29.34;30.03
17209;BME280;8720;48.488;9.202;2022-07-06T12:41:50;97599.16;;;29.39;29.97
17209;BME280;8720;48.488;9.202;2022-07-06T12:44:21;97589.78;;;29.33;29.61
17209;BME280;8720;48.488;9.202;2022-07-06T12:46:50;97593.34;;;29.34;29.98
17209;BME280;8720;48.488;9.202;2022-07-06T12:49:21;97592.75;;;29.30;29.77
17209;BME280;8720;48.488;9.202;2022-07-06T12:51:59;97591.88;;;29.20;30.01
17209;BME280;8720;48.488;9.202;2022-07-06T12:54:30;97584.47;;;29.13;30.37
17209;BME280;8720;48.488;9.202;2022-07-06T12:57:07;97582.00;;;29.00;30.56
17209;BME280;8720;48.488;9.202;2022-07-06T12:59:38;97597.50;;;29.08;30.90
17209;BME280;8720;48.488;9.202;2022-07-06T13:02:08;97605.03;;;29.14;30.71
17209;BME280;8720;48.488;9.202;2022-07-06T13:04:37;97606.03;;;29.13;30.63
17209;BME280;8720;48.488;9.202;2022-07-06T13:07:05;97602.94;;;29.17;30.24
17209;BME280;8720;48.488;9.202;2022-07-06T13:09:32;97602.44;;;29.12;30.59
17209;BME280;8720;48.488;9.202;2022-07-06T13:12:00;97580.97;;;28.92;30.63
17209;BME280;8720;48.488;9.202;2022-07-06T13:14:28;97596.47;;;28.99;30.79
17209;BME280;8720;48.488;9.202;2022-07-06T13:16:55;97609.38;;;29.05;30.85
17209;BME280;8720;48.488;9.202;2022-07-06T13:19:22;97610.38;;;29.04;30.65
17209;BME280;8720;48.488;9.202;2022-07-06T13:21:50;97602.56;;;29.01;30.88
17209;BME280;8720;48.488;9.202;2022-07-06T13:24:17;97615.03;;;29.02;31.60
17209;BME280;8720;48.488;9.202;2022-07-06T13:26:44;97602.16;;;29.06;31.54
17209;BME280;8720;48.488;9.202;2022-07-06T13:29:13;97612.88;;;29.17;31.33
17209;BME280;8720;48.488;9.202;2022-07-06T13:31:41;97605.50;;;29.19;30.99